createdAt,value
2023-01-26T00:00:54.447Z,98.42
2023-01-26T00:03:22.372Z,98.18
2023-01-26T00:05:50.962Z,97.69
2023-01-26T00:08:20.702Z,97.63
2023-01-26T00:10:51.051Z,97.50
2023-01-26T00:13:20.255Z,97.30
2023-01-26T00:15:47.918Z,97.65
2023-01-26T00:18:15.844Z,97.81
2023-01-26T00:20:43.461Z,97.64
2023-01-26T00:23:12.046Z,97.60
2023-01-26T00:25:43.280Z,97.32
2023-01-26T00:28:12.295Z,97.15
2023-01-26T00:30:43.110Z,97.07
2023-01-26T00:33:13.128Z,97.24
2023-01-26T00:35:45.083Z,97.03
2023-01-26T00:38:14.548Z,96.87
2023-01-26T00:40:41.973Z,96.25
2023-01-26T00:43:09.401Z,96.25
2023-01-26T00:45:39.839Z,96.02
2023-01-26T00:48:07.764Z,95.45
2023-01-26T00:50:35.881Z,95.70
2023-01-26T00:53:03.537Z,95.79
2023-01-26T00:55:34.036Z,95.62
2023-01-26T00:58:06.558Z,96.03
2023-01-26T01:00:36.194Z,96.30
2023-01-26T01:03:03.767Z,96.54
2023-01-26T01:05:31.898Z,96.92
2023-01-26T01:07:59.600Z,97.54
2023-01-26T01:10:30.076Z,97.75
2023-01-26T01:12:57.707Z,98.32
2023-01-26T01:15:26.356Z,98.53
2023-01-26T01:17:53.744Z,98.89
2023-01-26T01:20:21.399Z,98.70
2023-01-26T01:22:48.766Z,98.89
2023-01-26T01:25:16.347Z,99.42
2023-01-26T01:27:43.818Z,99.31
2023-01-26T01:30:12.382Z,99.50
2023-01-26T01:32:40.508Z,100.00
2023-01-26T01:35:08.398Z,100.00
2023-01-26T01:37:39.965Z,100.00
2023-01-26T01:40:13.472Z,100.00
2023-01-26T01:42:48.007Z,100.00
2023-01-26T01:45:27.622Z,100.00
2023-01-26T01:47:56.397Z,100.00
2023-01-26T01:50:24.656Z,100.00
2023-01-26T01:52:54.454Z,100.00
2023-01-26T01:55:21.842Z,100.00
2023-01-26T01:57:52.929Z,100.00
2023-01-26T02:00:24.175Z,100.00
2023-01-26T02:03:13.663Z,100.00
2023-01-26T02:06:02.999Z,100.00
2023-01-26T02:08:36.173Z,100.00
2023-01-26T02:11:10.361Z,100.00
2023-01-26T02:13:38.387Z,100.00
2023-01-26T02:16:13.175Z,100.00
2023-01-26T02:18:41.849Z,100.00
2023-01-26T02:21:11.182Z,100.00
2023-01-26T02:24:00.463Z,100.00
2023-01-26T02:26:30.805Z,100.00
2023-01-26T02:29:04.128Z,100.00
2023-01-26T02:31:36.974Z,100.00
2023-01-26T02:34:06.605Z,100.00
2023-01-26T02:36:35.056Z,100.00
2023-01-26T02:39:27.198Z,100.00
2023-01-26T02:42:14.285Z,100.00
2023-01-26T02:44:42.218Z,100.00
2023-01-26T02:47:17.525Z,100.00
2023-01-26T02:49:50.903Z,100.00
2023-01-26T02:52:23.718Z,100.00
2023-01-26T02:55:09.803Z,100.00
2023-01-26T02:57:38.110Z,100.00
2023-01-26T03:00:08.995Z,100.00
2023-01-26T03:02:38.087Z,100.00
2023-01-26T03:05:08.242Z,100.00
2023-01-26T03:07:35.998Z,100.00
2023-01-26T03:10:04.727Z,100.00
2023-01-26T03:12:32.376Z,100.00
2023-01-26T03:15:19.362Z,100.00
2023-01-26T03:17:50.075Z,100.00
2023-01-26T03:20:36.143Z,100.00
2023-01-26T03:23:22.318Z,100.00
2023-01-26T03:26:08.265Z,100.00
2023-01-26T03:28:35.673Z,100.00
2023-01-26T03:31:05.859Z,100.00
2023-01-26T03:33:34.538Z,100.00
2023-01-26T03:36:01.929Z,100.00
2023-01-26T03:38:32.406Z,100.00
2023-01-26T03:41:18.506Z,100.00
2023-01-26T03:44:05.500Z,100.00
2023-01-26T03:46:51.634Z,100.00
2023-01-26T03:49:39.730Z,100.00
2023-01-26T03:52:27.118Z,100.00
2023-01-26T03:55:18.683Z,100.00
2023-01-26T03:57:47.651Z,100.00
2023-01-26T04:00:30.458Z,100.00
2023-01-26T04:03:16.705Z,100.00
2023-01-26T04:06:15.766Z,100.00
2023-01-26T04:08:49.657Z,100.00
2023-01-26T04:11:27.265Z,100.00
2023-01-26T04:14:18.822Z,100.00
2023-01-26T04:17:11.823Z,100.00
2023-01-26T04:19:57.843Z,100.00
2023-01-26T04:22:25.381Z,100.00
2023-01-26T04:24:53.668Z,100.00
2023-01-26T04:27:21.200Z,100.00
2023-01-26T04:29:48.638Z,100.00
2023-01-26T04:32:17.113Z,100.00
2023-01-26T04:34:44.645Z,100.00
2023-01-26T04:37:13.195Z,100.00
2023-01-26T04:39:41.648Z,100.00
2023-01-26T04:42:09.050Z,100.00
2023-01-26T04:44:42.653Z,100.00
2023-01-26T04:47:11.510Z,100.00
2023-01-26T04:49:40.400Z,100.00
2023-01-26T04:52:09.110Z,100.00
2023-01-26T04:54:37.642Z,100.00
2023-01-26T04:57:06.081Z,100.00
2023-01-26T04:59:33.481Z,100.00
2023-01-26T05:02:02.530Z,100.00
2023-01-26T05:04:30.194Z,100.00
2023-01-26T05:06:57.936Z,100.00
2023-01-26T05:09:26.500Z,100.00
2023-01-26T05:11:54.318Z,100.00
2023-01-26T05:14:22.835Z,100.00
2023-01-26T05:16:50.543Z,100.00
2023-01-26T05:19:17.927Z,100.00
2023-01-26T05:21:45.360Z,100.00
2023-01-26T05:24:18.904Z,100.00
2023-01-26T05:26:46.531Z,100.00
2023-01-26T05:29:14.246Z,100.00
2023-01-26T05:31:42.549Z,100.00
2023-01-26T05:34:09.858Z,100.00
2023-01-26T05:36:41.399Z,100.00
2023-01-26T05:39:11.707Z,100.00
2023-01-26T05:41:41.185Z,100.00
2023-01-26T05:44:10.422Z,100.00
2023-01-26T05:46:39.639Z,100.00
2023-01-26T05:49:07.511Z,100.00
2023-01-26T05:51:37.000Z,100.00
2023-01-26T05:54:05.083Z,100.00
2023-01-26T05:56:32.448Z,100.00
2023-01-26T05:59:01.895Z,100.00
2023-01-26T06:01:35.144Z,100.00
2023-01-26T06:04:06.732Z,100.00
2023-01-26T06:06:37.356Z,100.00
2023-01-26T06:09:05.006Z,100.00
2023-01-26T06:11:32.860Z,100.00
2023-01-26T06:14:01.619Z,100.00
2023-01-26T06:16:29.326Z,100.00
2023-01-26T06:18:57.840Z,100.00
2023-01-26T06:21:25.420Z,100.00
2023-01-26T06:23:55.181Z,100.00
2023-01-26T06:26:25.295Z,100.00
2023-01-26T06:28:53.770Z,100.00
2023-01-26T06:31:34.486Z,100.00
2023-01-26T06:34:04.135Z,100.00
2023-01-26T06:36:33.912Z,100.00
2023-01-26T06:39:01.531Z,100.00
2023-01-26T06:41:29.645Z,100.00
2023-01-26T06:43:58.060Z,100.00
2023-01-26T06:46:28.879Z,100.00
2023-01-26T06:48:56.445Z,100.00
2023-01-26T06:51:59.928Z,100.00
2023-01-26T06:54:27.570Z,100.00
2023-01-26T06:56:56.034Z,100.00
2023-01-26T06:59:23.657Z,100.00
2023-01-26T07:01:52.413Z,100.00
2023-01-26T07:04:19.954Z,100.00
2023-01-26T07:06:48.389Z,100.00
2023-01-26T07:09:15.955Z,100.00
2023-01-26T07:11:43.571Z,100.00
2023-01-26T07:14:10.969Z,100.00
2023-01-26T07:16:39.976Z,100.00
2023-01-26T07:19:08.420Z,100.00
2023-01-26T07:21:39.705Z,100.00
2023-01-26T07:24:09.988Z,100.00
2023-01-26T07:26:37.535Z,100.00
2023-01-26T07:29:12.485Z,100.00
2023-01-26T07:31:42.227Z,100.00
2023-01-26T07:34:11.016Z,100.00
2023-01-26T07:36:40.429Z,100.00
2023-01-26T07:39:08.625Z,100.00
2023-01-26T07:42:15.235Z,100.00
2023-01-26T07:44:46.531Z,100.00
2023-01-26T07:47:26.931Z,100.00
2023-01-26T07:49:54.971Z,100.00
2023-01-26T07:52:31.240Z,100.00
2023-01-26T07:55:17.939Z,100.00
2023-01-26T07:57:45.527Z,100.00
2023-01-26T08:00:21.057Z,100.00
2023-01-26T08:02:55.777Z,100.00
2023-01-26T08:05:24.758Z,100.00
2023-01-26T08:08:30.719Z,100.00
2023-01-26T08:14:46.851Z,100.00
2023-01-26T08:17:18.196Z,100.00
2023-01-26T08:19:51.121Z,100.00
2023-01-26T08:22:19.861Z,100.00
2023-01-26T08:24:47.455Z,100.00
2023-01-26T08:27:19.740Z,100.00
2023-01-26T08:29:49.697Z,100.00
2023-01-26T08:32:18.516Z,100.00
2023-01-26T09:17:03.442Z,100.00
2023-01-26T09:19:35.559Z,100.00
2023-01-26T09:22:03.533Z,100.00
2023-01-26T09:24:31.242Z,100.00
2023-01-26T09:27:09.156Z,100.00
2023-01-26T09:29:44.015Z,100.00
2023-01-26T09:32:20.954Z,100.00
2023-01-26T09:34:52.292Z,100.00
2023-01-26T09:37:24.137Z,100.00
2023-01-26T09:39:57.737Z,100.00
2023-01-26T09:43:05.946Z,100.00
2023-01-26T09:46:06.086Z,100.00
2023-01-26T09:48:36.900Z,100.00
2023-01-26T09:51:15.887Z,100.00
2023-01-26T09:54:19.378Z,100.00
2023-01-26T09:56:56.953Z,100.00
2023-01-26T09:59:58.561Z,100.00
2023-01-26T10:02:53.365Z,100.00
2023-01-26T10:05:29.755Z,100.00
2023-01-26T10:08:10.737Z,100.00
2023-01-26T10:10:42.337Z,100.00
2023-01-26T10:13:16.533Z,100.00
2023-01-26T10:15:48.101Z,100.00
2023-01-26T10:18:22.819Z,100.00
2023-01-26T10:21:02.786Z,100.00
2023-01-26T10:23:37.320Z,100.00
2023-01-26T10:26:16.285Z,100.00
2023-01-26T10:28:46.873Z,100.00
2023-01-26T10:31:20.336Z,100.00
2023-01-26T10:34:23.440Z,100.00
2023-01-26T10:36:52.062Z,100.00
2023-01-26T10:39:29.481Z,100.00
2023-01-26T10:42:04.486Z,99.77
2023-01-26T10:44:36.302Z,100.00
2023-01-26T10:47:15.983Z,100.00
2023-01-26T10:50:26.261Z,99.87
2023-01-26T10:53:06.484Z,98.74
2023-01-26T10:55:39.212Z,98.73
2023-01-26T10:58:09.052Z,98.48
2023-01-26T11:00:37.560Z,98.20
2023-01-26T11:03:25.966Z,97.83
2023-01-26T11:06:13.471Z,98.17
2023-01-26T11:08:41.233Z,97.60
2023-01-26T11:11:30.641Z,97.59
2023-01-26T11:14:17.682Z,97.64
2023-01-26T11:17:15.668Z,97.04
2023-01-26T11:19:57.208Z,96.96
2023-01-26T11:22:43.797Z,96.42
2023-01-26T11:25:51.556Z,95.77
2023-01-26T11:28:41.286Z,95.17
2023-01-26T11:31:25.516Z,94.48
2023-01-26T11:34:05.984Z,92.89
2023-01-26T11:36:36.238Z,93.47
2023-01-26T11:39:17.470Z,91.49
2023-01-26T11:42:02.300Z,91.40
2023-01-26T11:44:47.686Z,91.30
2023-01-26T11:47:33.775Z,91.48
2023-01-26T11:50:37.118Z,91.51
2023-01-26T11:53:31.686Z,90.87
2023-01-26T11:56:03.751Z,91.47
2023-01-26T11:58:55.636Z,92.24
2023-01-26T12:01:38.443Z,92.21
2023-01-26T12:04:19.042Z,92.84
2023-01-26T12:06:48.463Z,93.71
2023-01-26T12:09:23.549Z,94.09
2023-01-26T12:11:56.005Z,94.03
2023-01-26T12:14:32.250Z,93.82
2023-01-26T12:17:36.849Z,94.20
2023-01-26T12:20:25.343Z,94.87
2023-01-26T12:23:03.622Z,95.13
2023-01-26T12:25:49.948Z,95.30
2023-01-26T12:28:41.163Z,95.20
2023-01-26T12:31:17.352Z,95.55
2023-01-26T12:33:54.073Z,95.74
2023-01-26T12:36:33.570Z,96.29
2023-01-26T12:39:17.233Z,95.62
2023-01-26T12:42:10.102Z,95.83
2023-01-26T12:45:02.362Z,94.88
2023-01-26T12:47:36.013Z,92.30
2023-01-26T12:50:41.579Z,90.94
2023-01-26T12:53:32.589Z,88.57
2023-01-26T12:56:20.128Z,87.46
2023-01-26T12:58:50.816Z,87.07
2023-01-26T13:01:21.311Z,86.30
2023-01-26T13:04:09.542Z,86.71
2023-01-26T13:06:37.150Z,87.02
2023-01-26T13:09:17.237Z,85.48
2023-01-26T13:11:59.523Z,84.20
2023-01-26T13:14:38.230Z,83.92
2023-01-26T13:17:15.988Z,84.50
2023-01-26T13:19:43.948Z,85.31
2023-01-26T13:22:24.091Z,86.66
2023-01-26T13:25:28.266Z,86.79
2023-01-26T13:27:57.550Z,86.83
2023-01-26T13:30:26.084Z,86.12
2023-01-26T13:33:28.788Z,85.27
2023-01-26T13:35:58.608Z,85.15
2023-01-26T13:38:35.396Z,85.42
2023-01-26T13:41:03.754Z,86.48
2023-01-26T13:43:44.392Z,86.29
2023-01-26T13:46:34.002Z,86.01
2023-01-26T13:49:02.303Z,85.43
2023-01-26T13:51:34.569Z,85.15
2023-01-26T13:54:17.918Z,84.80
2023-01-26T13:57:06.833Z,84.14
2023-01-26T13:59:53.045Z,83.49
2023-01-26T14:02:28.018Z,83.93
2023-01-26T14:04:58.540Z,84.05
2023-01-26T14:07:57.400Z,84.00
2023-01-26T14:10:27.723Z,84.91
2023-01-26T14:12:59.317Z,85.82
2023-01-26T14:15:30.309Z,86.90
2023-01-26T14:18:04.095Z,87.95
2023-01-26T14:20:34.324Z,89.10
2023-01-26T14:23:14.963Z,90.82
2023-01-26T14:25:47.410Z,92.78
2023-01-26T14:28:18.339Z,95.11
2023-01-26T14:30:51.380Z,95.80
2023-01-26T14:33:20.232Z,95.79
2023-01-26T14:35:59.396Z,96.48
2023-01-26T14:38:29.483Z,95.80
2023-01-26T14:41:00.339Z,95.91
2023-01-26T14:43:29.091Z,96.05
2023-01-26T14:46:18.031Z,96.13
2023-01-26T14:48:54.331Z,96.40
2023-01-26T14:51:27.171Z,95.90
2023-01-26T14:54:02.525Z,95.06
2023-01-26T14:56:41.175Z,94.59
2023-01-26T14:59:15.364Z,92.70
2023-01-26T15:01:43.486Z,92.38
2023-01-26T15:04:32.470Z,91.98
2023-01-26T15:07:23.922Z,91.10
2023-01-26T15:09:57.449Z,91.75
2023-01-26T15:12:27.765Z,90.96
2023-01-26T15:14:59.254Z,89.95
2023-01-26T15:17:42.513Z,89.76
2023-01-26T15:22:57.930Z,88.38
2023-01-26T15:25:27.587Z,86.90
2023-01-26T15:27:59.346Z,86.08
2023-01-26T15:30:35.573Z,84.53
2023-01-26T15:33:06.369Z,83.96
2023-01-26T15:35:35.228Z,82.88
2023-01-26T15:38:07.338Z,81.35
2023-01-26T15:40:37.214Z,80.90
2023-01-26T15:43:18.487Z,80.83
2023-01-26T15:45:49.049Z,81.21
2023-01-26T15:48:16.789Z,81.10
2023-01-26T15:50:50.841Z,80.95
2023-01-26T15:53:24.689Z,81.64
2023-01-26T15:55:59.258Z,81.67
2023-01-26T15:58:27.585Z,82.06
2023-01-26T16:00:56.404Z,83.39
2023-01-26T16:03:27.876Z,84.37
2023-01-26T16:05:58.371Z,84.83
2023-01-26T16:08:37.439Z,85.28
2023-01-26T16:11:06.900Z,85.96
2023-01-26T16:13:34.637Z,86.56
2023-01-26T16:16:02.693Z,86.88
2023-01-26T16:18:31.954Z,86.20
2023-01-26T16:21:01.293Z,85.55
2023-01-26T16:23:42.377Z,84.73
2023-01-26T16:26:15.688Z,85.85
2023-01-26T16:28:44.421Z,86.80
2023-01-26T16:31:14.492Z,85.93
2023-01-26T16:33:47.768Z,86.13
2023-01-26T16:36:17.235Z,86.12
2023-01-26T16:38:45.421Z,86.12
2023-01-26T16:41:26.732Z,86.51
2023-01-26T16:43:57.332Z,86.51
2023-01-26T16:46:55.332Z,87.17
2023-01-26T16:49:26.812Z,87.68
2023-01-26T16:51:54.594Z,88.03
2023-01-26T16:54:32.252Z,87.47
2023-01-26T16:57:07.972Z,87.58
2023-01-26T16:59:35.411Z,87.68
2023-01-26T17:02:31.249Z,87.92
2023-01-26T17:04:59.493Z,87.23
2023-01-26T17:07:28.939Z,86.79
2023-01-26T17:09:57.693Z,86.27
2023-01-26T17:12:26.135Z,85.85
2023-01-26T17:14:56.085Z,85.63
2023-01-26T17:17:25.052Z,85.62
2023-01-26T17:20:17.679Z,84.59
2023-01-26T17:22:46.337Z,85.13
2023-01-26T17:25:16.704Z,84.87
2023-01-26T17:27:46.731Z,85.74
2023-01-26T17:30:14.676Z,86.10
2023-01-26T17:32:51.294Z,87.10
2023-01-26T17:35:19.214Z,87.78
2023-01-26T17:37:51.491Z,88.57
2023-01-26T17:40:19.559Z,88.54
2023-01-26T17:42:51.191Z,87.54
2023-01-26T17:45:20.273Z,87.55
2023-01-26T17:47:47.779Z,86.85
2023-01-26T17:50:15.592Z,85.04
2023-01-26T17:52:43.112Z,82.83
2023-01-26T17:55:11.030Z,83.30
2023-01-26T17:57:39.872Z,83.00
2023-01-26T18:00:08.072Z,83.24
2023-01-26T18:02:38.176Z,83.51
2023-01-26T18:05:11.420Z,83.54
2023-01-26T18:07:40.136Z,83.48
2023-01-26T18:10:08.503Z,83.28
2023-01-26T18:12:38.978Z,83.18
2023-01-26T18:15:10.894Z,83.05
2023-01-26T18:17:39.033Z,82.36
2023-01-26T18:20:09.792Z,81.04
2023-01-26T18:22:37.310Z,80.65
2023-01-26T18:25:05.916Z,80.63
2023-01-26T18:27:33.453Z,80.57
2023-01-26T18:30:02.854Z,81.41
2023-01-26T18:32:30.392Z,81.11
2023-01-26T18:35:03.296Z,81.27
2023-01-26T18:37:38.193Z,82.11
2023-01-26T18:40:13.377Z,82.17
2023-01-26T18:42:40.952Z,82.41
2023-01-26T18:45:10.126Z,84.23
2023-01-26T18:47:42.512Z,85.17
2023-01-26T18:50:11.313Z,85.84
2023-01-26T18:52:39.253Z,86.31
2023-01-26T18:55:13.464Z,86.35
2023-01-26T18:57:41.203Z,86.48
2023-01-26T19:00:09.614Z,86.80
2023-01-26T19:02:44.250Z,87.10
2023-01-26T19:05:16.233Z,87.14
2023-01-26T19:07:44.591Z,87.77
2023-01-26T19:10:14.433Z,87.90
2023-01-26T19:12:51.355Z,88.09
2023-01-26T19:15:19.559Z,89.09
2023-01-26T19:17:48.459Z,89.13
2023-01-26T19:20:18.515Z,89.77
2023-01-26T19:22:54.276Z,90.01
2023-01-26T19:25:26.415Z,90.31
2023-01-26T19:28:06.295Z,90.93
2023-01-26T19:30:34.455Z,91.20
2023-01-26T19:33:22.175Z,91.24
2023-01-26T19:35:52.683Z,91.35
2023-01-26T19:38:22.452Z,90.88
2023-01-26T19:40:50.794Z,91.03
2023-01-26T19:43:19.773Z,90.11
2023-01-26T19:46:11.444Z,89.01
2023-01-26T19:48:41.392Z,87.87
2023-01-26T19:51:13.353Z,88.21
2023-01-26T19:53:43.913Z,87.71
2023-01-26T19:56:22.267Z,87.43
2023-01-26T19:59:06.895Z,87.86
2023-01-26T20:01:39.486Z,87.94
2023-01-26T20:04:11.134Z,87.84
2023-01-26T20:06:51.573Z,88.00
2023-01-26T20:15:53.184Z,87.52
2023-01-26T20:25:00.711Z,88.00
2023-01-26T20:27:50.535Z,88.01
2023-01-26T20:33:09.214Z,89.31
2023-01-26T20:35:37.392Z,89.35
2023-01-26T20:38:06.656Z,89.09
2023-01-26T20:40:35.372Z,89.76
2023-01-26T20:43:03.881Z,89.97
2023-01-26T20:45:57.235Z,90.02
2023-01-26T20:48:53.907Z,89.69
2023-01-26T20:52:15.884Z,89.89
2023-01-26T20:55:03.000Z,90.04
2023-01-26T20:57:48.913Z,90.20
2023-01-26T21:00:50.855Z,89.97
2023-01-26T21:16:07.536Z,89.58
2023-01-26T21:24:59.686Z,89.77
2023-01-26T21:27:46.133Z,90.00
2023-01-26T21:30:31.448Z,91.40
2023-01-26T21:33:26.289Z,92.02
2023-01-26T21:36:39.323Z,92.60
2023-01-26T21:39:27.723Z,92.78
2023-01-26T21:42:12.573Z,93.12
2023-01-26T21:45:09.744Z,93.26
2023-01-26T21:48:12.193Z,93.50
2023-01-26T21:51:14.352Z,94.52
2023-01-26T21:54:12.072Z,95.61
2023-01-26T21:56:56.931Z,96.51
2023-01-26T22:02:46.033Z,97.24
2023-01-26T22:09:17.974Z,98.35
2023-01-26T22:12:11.869Z,98.35
2023-01-26T22:15:22.214Z,98.70
2023-01-26T22:18:07.272Z,99.38
2023-01-26T22:23:50.406Z,99.80
2023-01-26T22:30:14.577Z,99.98
2023-01-26T22:33:10.568Z,100.00
2023-01-26T22:36:08.601Z,100.00
2023-01-26T22:41:55.293Z,100.00
2023-01-26T22:44:24.423Z,100.00
2023-01-26T22:46:53.072Z,100.00
2023-01-26T22:49:20.494Z,100.00
2023-01-26T22:51:48.035Z,100.00
2023-01-26T22:54:15.816Z,99.71
2023-01-26T22:56:43.302Z,99.47
2023-01-26T22:59:11.398Z,99.51
2023-01-26T23:01:44.355Z,99.71
2023-01-26T23:04:12.630Z,99.38
2023-01-26T23:06:41.518Z,99.13
2023-01-26T23:09:09.359Z,99.29
2023-01-26T23:11:40.967Z,99.07
2023-01-26T23:14:08.572Z,98.92
2023-01-26T23:16:36.314Z,98.98
2023-01-26T23:19:04.236Z,99.10
2023-01-26T23:21:32.368Z,99.44
2023-01-26T23:23:59.953Z,99.59
2023-01-26T23:26:28.166Z,99.71
2023-01-26T23:28:56.445Z,100.00
2023-01-26T23:31:24.146Z,100.00
2023-01-26T23:33:52.104Z,100.00
2023-01-26T23:36:21.305Z,100.00
2023-01-26T23:38:49.080Z,100.00
2023-01-26T23:41:19.565Z,99.79
2023-01-26T23:43:48.240Z,100.00
2023-01-26T23:46:16.009Z,100.00
2023-01-26T23:48:45.598Z,100.00
2023-01-26T23:51:17.296Z,99.98
2023-01-26T23:53:45.297Z,99.56
2023-01-26T23:56:20.629Z,98.95
2023-01-26T23:58:48.191Z,99.42
